Cresco, PA (18326)

2:31 PM EST on February 06, 2016 (GMT -0500)
Dogwood Ln | | Change Station
CLOSE
Current Station
Personal Weather Station
Location: Canadensis, PA
Elevation: 1300 ft
Nearby Weather Stations

Elev 1300 ft 41.17 °N, 75.19 °W | Updated 3 seconds ago

Partly Cloudy
Partly Cloudy
41.0 °F
Feels Like 39 °F
N
3.1
Wind Variable Wind from NW
Gusts 4.6 mph

Today
High -- | Low -- °F
--% Chance of Precip.
Yesterday
High -- | Low -- °F
Precip. -- in
Pressure 30.27 in
Visibility 10.0 miles
Clouds Few 4800 ft
Windchill 39 °F
Dew Point 14 °F
Humidity 33%
Rainfall 0.00 in
Snow Depth Not available.
7:07 AM 5:23 PM
Waning Crescent, 4% visible
METAR KMPO 061853Z AUTO 22009KT 10SM FEW048 02/M08 A3019 RMK AO2 SLP249 T00171083
Pressure 30.27 in
Visibility 10.0 miles
Clouds Few 4800 ft
Windchill 39 °F
Dew Point 14 °F
Humidity 33%
Rainfall 0.00 in
Snow Depth Not available.
7:07 AM 5:23 PM
Waning Crescent, 4% visible
METAR KMPO 061853Z AUTO 22009KT 10SM FEW048 02/M08 A3019 RMK AO2 SLP249 T00171083

10-Day Weather Forecast

Almanac

Astronomy

Feb. 06, 2016 Rise Set
Actual Time
Civil Twilight
Nautical Twilight
Astronomical Twilight
Moon
Length of Visible Light
Length of Day
Tomorrow will be .
, % of the Moon is Illuminated

Today's Extremes

State Highs State Lows

Community

WunderPhotos

Upload Photos

1,891,037 photos uploaded!

WunderBlog® & News

Nearby

Air Quality

  Air Quality AQ Index Pollutant
Not available.

Snow Depth

Station Depth Elevation

Earthquake Activity

City Distance Mag. Time & Date
Minimum magnitude displayed is 2.5.

Coastal Water Temperatures

Place Temperature

Stations

Nearby Weather Stations

Station Location Temp. Windchill Dew Point Humidity Wind Precip. Elev Updated Type
                   

Watches & Warnings

There are currently no watches in effect.